Impacts TAF Board
For situational awareness. Not to be used for flight planning purposes.
IDs:

KJFK - New York/Kennedy Int, NY, US

Issued at 2251 UTC 19 Jan 2019
Updated at 2343 UTC 19 Jan 2019
Potential Impact None Slight Moderate High
Time2251Z 20/00Z 20/01Z 20/02Z 20/03Z 20/04Z 20/05Z 20/06Z 20/07Z 20/08Z 20/09Z 20/10Z 20/11Z 20/12Z>>
Type OBS PRVL PRVL PRVL
  [TEMP]  
PRVL PRVL PRVL PRVL PRVL PRVL PRVL PRVL PRVL PRVL
VIS 10 6 1 2 2 2 2 1.5 1.5 1.5 1.5 1.5 1.5 1.5
CIG 23 25 9 9
  [9]  
9 9 9 7 7 7 7 7 7 7
Cover OVC OVC OVC OVC
  [OVC]  
OVC OVC OVC OVC OVC OVC OVC OVC OVC OVC
FltCat MVFR MVFR IFR IFR
  [IFR]  
IFR IFR IFR IFR IFR IFR IFR IFR IFR IFR
WX -- -SN -SN BR RA BR
  [-RA -SN]  
RA BR RA BR RA BR +RA BR +RA BR +RA BR +RA BR +RA BR +RA BR +RA BR
WDir 80 110 100 80
[80]
80 80 80 110 110 110 110 110 110 110
WSpd 9 12 14 15
  [15]  
15 15 15 14 14 14 14 14 14 14
WGst -- -- 22 22
  [22]  
22 22 22 -- -- -- -- -- -- --
Raw TAF
KJFK 192251Z 1923/2024 08008KT P6SM BKN025 OVC035
  FM200000 11012KT 6SM -SN SCT020 OVC025
  FM200100 10014G22KT 1SM -SN BR OVC009
  FM200200 08015G22KT 2SM RA BR OVC009
  TEMPO 2002/2003 -RASN
  FM200600 11014KT 1 1/2SM +RA BR OVC007
  FM201400 18012KT 1 1/2SM RA BR OVC005
  FM201700 30015G25KT P6SM SCT009 BKN020
  FM202200 32022G32KT P6SM BKN035


Raw METAR
KJFK 192251Z 08009KT 10SM BKN023 OVC036 03/M01 A3012 RMK AO2 SLP197 T00281011
KJFK 192151Z 07009KT 10SM BKN026 OVC037 03/M02 A3013 RMK AO2 SLP201 T00281022
KJFK 192051Z 08008KT 10SM BKN025 OVC050 02/M03 A3016 RMK AO2 SLP212 T00221028 58017
KJFK 192034Z 08008KT 10SM BKN029 OVC055 02/M03 A3017 RMK AO2 T00221028

METAR Board
Radar Display
Forecast Discussion
For situational awareness. Not to be used for flight planning purposes.